Time;durP1;ratioP1;P1;durP2;ratioP2;P2;SDS_P1;SDS_P2;PMS_P1;PMS_P2;Temp;Humidity;BMP_temperature;BMP_pressure;BME280_temperature;BME280_humidity;BME280_pressure;Samples;Min_cycle;Max_cycle;Signal;HPM_P1;HPM_P2
2023/11/11 00:02:08;;;;;;;29.60;13.87;;;;;;;;;;4993534;28;20046;-71
2023/11/11 00:04:33;;;;;;;30.47;14.50;;;;;;;;;;4990980;28;20137;-72
2023/11/11 00:06:59;;;;;;;22.23;13.03;;;;;;;;;;4990469;28;20030;-70
2023/11/11 00:09:25;;;;;;;20.67;12.83;;;;;;;;;;4992368;28;20479;-71
2023/11/11 00:11:51;;;;;;;24.60;12.80;;;;;;;;;;4991926;28;20036;-72
2023/11/11 00:14:17;;;;;;;21.43;12.63;;;;;;;;;;4992288;28;20356;-71
2023/11/11 00:16:42;;;;;;;27.20;12.93;;;;;;;;;;4992256;28;20136;-73
2023/11/11 00:19:09;;;;;;;22.20;12.87;;;;;;;;;;4992316;28;20034;-73
2023/11/11 00:21:39;;;;;;;23.73;12.73;;;;;;;;;;4990730;28;20030;-72
2023/11/11 00:24:07;;;;;;;25.93;14.13;;;;;;;;;;4990625;28;20026;-74
2023/11/11 00:26:33;;;;;;;24.53;12.77;;;;;;;;;;4991948;28;20134;-71
2023/11/11 00:28:58;;;;;;;26.43;13.10;;;;;;;;;;4990322;28;20699;-70
2023/11/11 00:31:24;;;;;;;27.20;13.37;;;;;;;;;;4990541;28;20034;-70
2023/11/11 00:33:51;;;;;;;26.83;13.37;;;;;;;;;;4991859;28;20030;-71
2023/11/11 00:36:18;;;;;;;28.67;14.07;;;;;;;;;;4990630;28;20022;-72
2023/11/11 00:38:44;;;;;;;24.63;13.77;;;;;;;;;;4990259;28;20034;-72
2023/11/11 00:41:10;;;;;;;24.50;14.13;;;;;;;;;;4990562;28;20121;-73
2023/11/11 00:43:35;;;;;;;23.77;13.60;;;;;;;;;;4991683;28;20132;-71
2023/11/11 00:46:01;;;;;;;28.73;15.90;;;;;;;;;;4989947;28;20645;-71
2023/11/11 00:48:26;;;;;;;28.70;15.23;;;;;;;;;;4990036;28;20032;-71
2023/11/11 00:50:52;;;;;;;30.37;14.57;;;;;;;;;;4991502;28;20022;-72
2023/11/11 00:53:19;;;;;;;28.90;15.07;;;;;;;;;;4990207;28;20049;-72
2023/11/11 00:55:45;;;;;;;26.50;14.07;;;;;;;;;;4990300;28;20027;-71
2023/11/11 00:58:11;;;;;;;34.17;16.13;;;;;;;;;;4991542;28;20034;-72
2023/11/11 01:00:39;;;;;;;29.30;15.37;;;;;;;;;;4996269;28;20403;-71
2023/11/11 01:03:05;;;;;;;24.33;13.17;;;;;;;;;;5008881;28;20038;-72
2023/11/11 01:05:31;;;;;;;28.07;14.97;;;;;;;;;;5010687;28;20518;-71
2023/11/11 01:07:57;;;;;;;29.63;14.20;;;;;;;;;;5010190;28;20041;-72
2023/11/11 01:10:23;;;;;;;27.87;14.10;;;;;;;;;;5026074;28;20034;-72
2023/11/11 01:12:54;;;;;;;32.03;14.87;;;;;;;;;;5010875;28;20030;-72
2023/11/11 01:15:19;;;;;;;31.87;16.70;;;;;;;;;;5009519;28;20040;-72
2023/11/11 01:17:45;;;;;;;28.43;15.00;;;;;;;;;;5010582;28;20462;-72
2023/11/11 01:20:12;;;;;;;24.27;13.00;;;;;;;;;;5010749;28;20033;-71
2023/11/11 01:22:38;;;;;;;23.43;13.50;;;;;;;;;;5010580;28;20525;-72
2023/11/11 01:25:04;;;;;;;27.73;14.00;;;;;;;;;;5010472;28;20124;-73
2023/11/11 01:27:31;;;;;;;23.70;14.20;;;;;;;;;;5010747;28;20037;-73
2023/11/11 01:30:00;;;;;;;28.53;13.63;;;;;;;;;;5010634;28;20056;-73
2023/11/11 01:32:25;;;;;;;26.03;13.30;;;;;;;;;;5010567;28;20453;-72
2023/11/11 01:34:54;;;;;;;23.57;12.67;;;;;;;;;;5009324;28;20153;-72
2023/11/11 01:37:20;;;;;;;20.97;13.23;;;;;;;;;;5009328;28;20528;-73
2023/11/11 01:39:45;;;;;;;22.30;12.33;;;;;;;;;;5010558;28;20036;-71
2023/11/11 01:42:12;;;;;;;23.57;12.77;;;;;;;;;;5009087;28;20030;-73
2023/11/11 01:44:38;;;;;;;21.63;12.30;;;;;;;;;;5009433;28;20033;-71
2023/11/11 01:47:06;;;;;;;22.57;11.67;;;;;;;;;;5010577;28;20464;-72
2023/11/11 01:49:32;;;;;;;20.17;12.40;;;;;;;;;;5012352;28;20026;-71
2023/11/11 01:51:57;;;;;;;19.87;11.50;;;;;;;;;;5012762;28;20034;-72
2023/11/11 01:54:23;;;;;;;26.43;12.83;;;;;;;;;;5012592;28;20026;-71
2023/11/11 01:56:50;;;;;;;23.40;13.23;;;;;;;;;;5012956;28;20049;-72
2023/11/11 01:59:17;;;;;;;20.90;11.67;;;;;;;;;;5010777;28;20041;-72
2023/11/11 02:01:47;;;;;;;23.80;12.30;;;;;;;;;;4996628;28;20141;-73
2023/11/11 02:04:14;;;;;;;24.57;12.70;;;;;;;;;;4989205;28;20054;-72
2023/11/11 02:06:40;;;;;;;23.93;12.33;;;;;;;;;;4990066;28;20130;-71
2023/11/11 02:09:05;;;;;;;26.90;13.70;;;;;;;;;;4992289;28;20042;-70
2023/11/11 02:11:31;;;;;;;25.63;12.50;;;;;;;;;;4991269;28;20030;-72
2023/11/11 02:13:57;;;;;;;23.57;13.67;;;;;;;;;;4992552;28;20120;-72
2023/11/11 02:16:24;;;;;;;28.63;13.17;;;;;;;;;;4990395;28;20030;-71
2023/11/11 02:18:50;;;;;;;25.90;13.27;;;;;;;;;;4989582;28;20053;-72
2023/11/11 02:21:16;;;;;;;21.83;12.63;;;;;;;;;;4990792;28;20391;-70
2023/11/11 02:23:41;;;;;;;24.00;13.07;;;;;;;;;;4990137;28;20038;-70
2023/11/11 02:26:07;;;;;;;24.80;13.53;;;;;;;;;;4989518;28;20038;-72
2023/11/11 02:28:32;;;;;;;26.20;13.20;;;;;;;;;;4992194;28;20710;-71
2023/11/11 02:30:58;;;;;;;23.30;13.27;;;;;;;;;;4993259;28;20034;-72
2023/11/11 02:33:24;;;;;;;29.00;15.23;;;;;;;;;;4994045;28;20042;-73
2023/11/11 02:35:50;;;;;;;30.70;14.10;;;;;;;;;;4994214;28;20058;-71
2023/11/11 02:38:16;;;;;;;23.17;12.73;;;;;;;;;;4992711;28;20245;-72
2023/11/11 02:40:41;;;;;;;24.40;13.23;;;;;;;;;;4992653;28;20037;-71
2023/11/11 02:43:07;;;;;;;21.77;13.00;;;;;;;;;;4994042;28;20026;-73
2023/11/11 02:45:33;;;;;;;21.27;13.47;;;;;;;;;;4993768;28;20032;-73
2023/11/11 02:48:03;;;;;;;26.17;13.50;;;;;;;;;;4994650;28;20092;-71
2023/11/11 02:50:29;;;;;;;25.63;13.80;;;;;;;;;;4995291;28;20081;-71
2023/11/11 02:52:54;;;;;;;23.47;13.57;;;;;;;;;;4993783;28;20443;-71
2023/11/11 02:55:21;;;;;;;24.80;13.27;;;;;;;;;;4992208;28;20030;-70
2023/11/11 02:57:47;;;;;;;28.13;13.70;;;;;;;;;;4992585;28;20478;-70
2023/11/11 03:00:13;;;;;;;27.23;15.47;;;;;;;;;;4995292;28;20084;-73
2023/11/11 03:02:40;;;;;;;24.13;13.87;;;;;;;;;;5013210;28;20034;-72
2023/11/11 03:05:07;;;;;;;25.17;13.30;;;;;;;;;;5011150;28;20050;-72
2023/11/11 03:07:32;;;;;;;25.33;13.57;;;;;;;;;;5013197;28;20112;-71
2023/11/11 03:10:04;;;;;;;26.77;13.53;;;;;;;;;;5011744;28;20422;-72
2023/11/11 03:12:33;;;;;;;24.47;13.23;;;;;;;;;;5011844;28;20061;-72
2023/11/11 03:15:02;;;;;;;27.37;13.10;;;;;;;;;;5013150;28;20061;-71
2023/11/11 03:17:28;;;;;;;23.57;13.67;;;;;;;;;;5028167;28;20025;-72
2023/11/11 03:19:54;;;;;;;22.63;12.97;;;;;;;;;;5013037;28;20050;-72
2023/11/11 03:22:19;;;;;;;26.40;14.97;;;;;;;;;;5013104;28;20148;-73
2023/11/11 03:24:45;;;;;;;24.87;14.73;;;;;;;;;;5012792;28;20100;-72
2023/11/11 03:27:11;;;;;;;28.33;15.17;;;;;;;;;;5011365;28;20030;-72
2023/11/11 03:29:36;;;;;;;25.60;13.93;;;;;;;;;;5012681;28;20038;-72
2023/11/11 03:32:02;;;;;;;26.63;14.20;;;;;;;;;;5012667;28;20045;-71
2023/11/11 03:34:27;;;;;;;24.43;13.63;;;;;;;;;;5012837;28;20026;-72
2023/11/11 03:36:53;;;;;;;29.17;13.77;;;;;;;;;;5012767;28;20056;-72
2023/11/11 03:39:18;;;;;;;24.30;12.93;;;;;;;;;;5012302;28;20398;-71
2023/11/11 03:41:44;;;;;;;24.30;12.90;;;;;;;;;;5011437;28;20033;-71
2023/11/11 03:44:09;;;;;;;27.70;11.53;;;;;;;;;;5010968;28;20077;-71
2023/11/11 03:46:35;;;;;;;22.57;13.03;;;;;;;;;;5011013;28;20021;-72
2023/11/11 03:49:00;;;;;;;18.47;11.57;;;;;;;;;;5012322;28;20064;-71
2023/11/11 03:51:26;;;;;;;22.73;11.87;;;;;;;;;;5010719;28;20752;-70
2023/11/11 03:53:51;;;;;;;22.27;11.37;;;;;;;;;;5012137;28;20077;-72
2023/11/11 03:56:20;;;;;;;22.30;12.07;;;;;;;;;;5012096;28;20034;-71
2023/11/11 03:58:47;;;;;;;18.27;11.13;;;;;;;;;;5012255;28;20038;-72
2023/11/11 04:01:13;;;;;;;21.60;12.50;;;;;;;;;;5001083;28;20070;-70
2023/11/11 04:03:39;;;;;;;23.13;11.33;;;;;;;;;;4993085;28;20077;-72
2023/11/11 04:06:09;;;;;;;21.07;11.47;;;;;;;;;;4991564;28;20038;-72
2023/11/11 04:08:35;;;;;;;20.07;11.30;;;;;;;;;;4992850;28;20431;-72
2023/11/11 04:11:07;;;;;;;25.47;11.57;;;;;;;;;;4990726;28;20169;-73
2023/11/11 04:13:34;;;;;;;22.57;11.07;;;;;;;;;;4992314;28;20340;-72
2023/11/11 04:15:59;;;;;;;23.63;11.63;;;;;;;;;;4992000;28;20033;-73
2023/11/11 04:18:25;;;;;;;22.37;11.57;;;;;;;;;;4992358;28;20049;-72
2023/11/11 04:20:52;;;;;;;19.67;11.17;;;;;;;;;;4990723;28;20108;-72
2023/11/11 04:23:18;;;;;;;20.13;11.50;;;;;;;;;;4990584;28;20030;-72
2023/11/11 04:25:43;;;;;;;21.17;11.80;;;;;;;;;;4990804;28;20463;-72
2023/11/11 04:28:09;;;;;;;20.70;11.07;;;;;;;;;;4992795;28;20030;-73
2023/11/11 04:30:34;;;;;;;18.23;11.60;;;;;;;;;;4992034;28;20106;-72
2023/11/11 04:33:01;;;;;;;23.97;13.03;;;;;;;;;;4990410;28;20062;-73
2023/11/11 04:35:26;;;;;;;30.77;12.63;;;;;;;;;;4990677;28;20037;-72
2023/11/11 04:37:52;;;;;;;19.43;11.33;;;;;;;;;;4990826;28;20042;-72
2023/11/11 04:40:18;;;;;;;26.37;12.80;;;;;;;;;;4991912;28;20033;-71
2023/11/11 04:42:43;;;;;;;25.00;12.53;;;;;;;;;;4991954;28;20026;-73
2023/11/11 04:45:09;;;;;;;23.83;11.87;;;;;;;;;;4991337;28;20052;-73
2023/11/11 04:47:35;;;;;;;23.80;12.73;;;;;;;;;;4991550;28;20040;-71
2023/11/11 04:50:01;;;;;;;23.70;12.20;;;;;;;;;;4989656;28;20030;-72
2023/11/11 04:52:27;;;;;;;21.00;12.07;;;;;;;;;;4990898;28;20034;-74
2023/11/11 04:54:52;;;;;;;21.67;11.77;;;;;;;;;;4991201;28;20067;-73
2023/11/11 04:57:18;;;;;;;23.93;12.43;;;;;;;;;;4989949;28;20037;-70
2023/11/11 04:59:43;;;;;;;21.17;12.97;;;;;;;;;;4990078;28;20030;-71
2023/11/11 05:02:10;;;;;;;29.13;12.63;;;;;;;;;;5007340;28;20025;-73
2023/11/11 05:04:35;;;;;;;23.90;12.23;;;;;;;;;;5010846;28;20053;-72
2023/11/11 05:07:01;;;;;;;18.97;10.73;;;;;;;;;;5009469;28;20030;-72
2023/11/11 05:09:27;;;;;;;15.70;9.77;;;;;;;;;;5011067;28;20095;-72
2023/11/11 05:11:54;;;;;;;16.50;9.63;;;;;;;;;;5009549;28;20022;-72
2023/11/11 05:14:19;;;;;;;15.73;8.63;;;;;;;;;;5010771;28;20101;-72
2023/11/11 05:16:50;;;;;;;24.57;10.10;;;;;;;;;;5011203;28;20148;-71
2023/11/11 05:19:17;;;;;;;17.33;9.60;;;;;;;;;;5011058;28;20029;-72
2023/11/11 05:21:43;;;;;;;18.27;9.83;;;;;;;;;;5011020;28;20365;-71
2023/11/11 05:24:08;;;;;;;16.40;10.27;;;;;;;;;;5010696;28;20030;-72
2023/11/11 05:26:34;;;;;;;16.73;9.27;;;;;;;;;;5009788;28;20030;-70
2023/11/11 05:29:01;;;;;;;24.00;10.77;;;;;;;;;;5010664;28;20033;-71
2023/11/11 05:31:27;;;;;;;18.87;10.43;;;;;;;;;;5009621;28;20124;-72
2023/11/11 05:33:53;;;;;;;20.00;9.77;;;;;;;;;;5025858;28;20102;-72
2023/11/11 05:36:19;;;;;;;20.97;11.10;;;;;;;;;;5009536;28;20468;-72
2023/11/11 05:38:47;;;;;;;21.77;11.37;;;;;;;;;;5010887;28;20025;-72
2023/11/11 05:41:13;;;;;;;19.83;11.30;;;;;;;;;;5010574;28;20692;-72
2023/11/11 05:43:38;;;;;;;26.50;12.00;;;;;;;;;;5009507;28;20029;-72
2023/11/11 05:46:05;;;;;;;22.20;11.90;;;;;;;;;;5009268;28;20588;-72
2023/11/11 05:48:30;;;;;;;22.80;12.93;;;;;;;;;;5009701;28;20026;-72
2023/11/11 05:50:56;;;;;;;24.57;12.67;;;;;;;;;;5012354;28;20061;-71
2023/11/11 05:53:21;;;;;;;28.87;14.27;;;;;;;;;;5011173;28;20465;-71
2023/11/11 05:55:47;;;;;;;27.03;12.77;;;;;;;;;;5010950;28;20017;-72
2023/11/11 05:58:12;;;;;;;25.83;13.13;;;;;;;;;;5012460;28;20363;-72
2023/11/11 06:00:39;;;;;;;18.33;11.37;;;;;;;;;;5014526;28;20029;-72
2023/11/11 06:03:05;;;;;;;21.67;11.27;;;;;;;;;;5012182;28;20079;-72
2023/11/11 06:05:34;;;;;;;22.20;12.03;;;;;;;;;;5015674;28;20072;-72
2023/11/11 06:08:01;;;;;;;27.20;13.30;;;;;;;;;;5015356;28;20021;-73
2023/11/11 06:10:26;;;;;;;21.03;12.47;;;;;;;;;;5014860;28;20107;-72
2023/11/11 06:12:52;;;;;;;22.10;11.47;;;;;;;;;;5015608;28;20077;-72
2023/11/11 06:15:18;;;;;;;20.50;12.50;;;;;;;;;;5013437;28;20536;-72
2023/11/11 06:17:44;;;;;;;23.70;11.90;;;;;;;;;;5012739;28;20051;-72
2023/11/11 06:20:10;;;;;;;24.97;12.53;;;;;;;;;;5013748;28;20117;-71
2023/11/11 06:22:35;;;;;;;20.73;11.17;;;;;;;;;;5014129;28;20025;-72
2023/11/11 06:25:01;;;;;;;21.83;12.20;;;;;;;;;;5012438;28;20179;-74
2023/11/11 06:27:26;;;;;;;20.57;12.33;;;;;;;;;;5012769;28;20038;-72
2023/11/11 06:29:52;;;;;;;18.83;11.37;;;;;;;;;;5012478;28;20108;-72
2023/11/11 06:32:17;;;;;;;21.37;12.53;;;;;;;;;;5013743;28;20101;-72
2023/11/11 06:34:45;;;;;;;21.30;10.67;;;;;;;;;;5028694;28;20033;-69
2023/11/11 06:37:10;;;;;;;21.00;10.77;;;;;;;;;;5013424;28;20401;-75
2023/11/11 06:39:36;;;;;;;19.73;11.50;;;;;;;;;;5013529;28;20036;-72
2023/11/11 06:42:02;;;;;;;22.53;11.47;;;;;;;;;;5013514;28;20068;-73
2023/11/11 06:44:27;;;;;;;20.80;12.00;;;;;;;;;;5014076;28;20117;-71
2023/11/11 06:46:53;;;;;;;17.47;10.53;;;;;;;;;;5012883;28;20117;-72
2023/11/11 06:49:19;;;;;;;21.43;10.53;;;;;;;;;;5013743;28;20381;-72
2023/11/11 06:51:44;;;;;;;18.23;10.03;;;;;;;;;;5013849;28;20057;-70
2023/11/11 06:54:10;;;;;;;18.93;10.47;;;;;;;;;;5013371;28;20109;-72
2023/11/11 06:56:35;;;;;;;20.80;10.90;;;;;;;;;;5013553;28;20022;-71
2023/11/11 06:59:04;;;;;;;23.57;10.87;;;;;;;;;;5012109;28;20026;-72
2023/11/11 07:01:30;;;;;;;24.87;14.13;;;;;;;;;;5013626;28;20024;-73
2023/11/11 07:03:57;;;;;;;21.73;11.70;;;;;;;;;;5014339;28;20054;-72
2023/11/11 07:06:24;;;;;;;18.57;10.37;;;;;;;;;;5018269;28;20394;-72
2023/11/11 07:08:53;;;;;;;16.80;9.77;;;;;;;;;;5017976;28;20084;-73
2023/11/11 07:11:19;;;;;;;20.60;10.17;;;;;;;;;;5035076;28;20041;-70
2023/11/11 07:13:46;;;;;;;17.33;9.40;;;;;;;;;;5018951;28;20040;-72
2023/11/11 07:16:17;;;;;;;18.13;9.90;;;;;;;;;;5018580;28;20116;-72
2023/11/11 07:18:45;;;;;;;20.07;10.37;;;;;;;;;;5020300;28;20034;-73
2023/11/11 07:21:24;;;;;;;16.30;9.57;;;;;;;;;;5018676;28;20038;-71
2023/11/11 07:23:50;;;;;;;16.43;8.80;;;;;;;;;;5018934;28;20025;-71
2023/11/11 07:26:17;;;;;;;15.03;8.87;;;;;;;;;;5020511;28;20030;-71
2023/11/11 07:28:46;;;;;;;16.27;8.70;;;;;;;;;;5019646;28;20021;-73
2023/11/11 07:31:17;;;;;;;14.97;9.40;;;;;;;;;;5020784;28;20026;-73
2023/11/11 07:33:43;;;;;;;14.83;8.53;;;;;;;;;;5020354;28;20111;-72
2023/11/11 07:36:09;;;;;;;15.40;8.47;;;;;;;;;;5018775;28;20028;-73
2023/11/11 07:38:36;;;;;;;14.73;8.53;;;;;;;;;;5018409;28;20150;-72
2023/11/11 07:41:02;;;;;;;19.97;7.87;;;;;;;;;;5017924;28;20048;-75
2023/11/11 07:43:29;;;;;;;15.87;7.63;;;;;;;;;;5019300;28;20111;-71
2023/11/11 07:45:55;;;;;;;12.77;7.67;;;;;;;;;;5018894;28;20057;-72
2023/11/11 07:48:20;;;;;;;13.97;8.17;;;;;;;;;;5019447;28;20029;-72
2023/11/11 07:50:46;;;;;;;18.33;8.70;;;;;;;;;;5015572;28;20026;-73
2023/11/11 07:53:15;;;;;;;24.60;9.40;;;;;;;;;;5000372;28;20034;-71
2023/11/11 07:55:41;;;;;;;19.27;9.13;;;;;;;;;;5015247;28;20153;-74
2023/11/11 07:58:07;;;;;;;17.27;9.80;;;;;;;;;;4997148;28;20041;-73
2023/11/11 08:00:33;;;;;;;23.07;9.33;;;;;;;;;;4998595;28;20023;-73
2023/11/11 08:03:05;;;;;;;21.43;10.23;;;;;;;;;;4994272;28;20079;-72
2023/11/11 08:05:32;;;;;;;15.83;9.27;;;;;;;;;;4992217;28;20414;-74
2023/11/11 08:07:59;;;;;;;15.27;9.93;;;;;;;;;;4993771;28;20689;-73
2023/11/11 08:10:26;;;;;;;17.47;8.97;;;;;;;;;;5008498;28;20045;-72
2023/11/11 08:12:52;;;;;;;13.70;8.23;;;;;;;;;;4992265;28;20053;-72
2023/11/11 08:15:21;;;;;;;16.87;9.13;;;;;;;;;;4993451;28;20034;-73
2023/11/11 08:17:48;;;;;;;18.80;9.20;;;;;;;;;;4992292;28;20453;-75
2023/11/11 08:20:18;;;;;;;17.73;10.10;;;;;;;;;;4992885;28;20037;-72
2023/11/11 08:22:44;;;;;;;20.67;10.03;;;;;;;;;;4976365;28;20034;-74
2023/11/11 08:25:12;;;;;;;18.10;10.20;;;;;;;;;;4990732;28;20026;-72
2023/11/11 08:27:42;;;;;;;19.90;10.23;;;;;;;;;;4992136;28;20105;-72
2023/11/11 08:30:11;;;;;;;20.20;9.93;;;;;;;;;;4992423;28;20384;-74
2023/11/11 08:32:55;;;;;;;16.30;10.07;;;;;;;;;;4993305;28;20030;-73
2023/11/11 08:35:21;;;;;;;15.97;8.67;;;;;;;;;;4990993;28;20027;-73
2023/11/11 08:37:47;;;;;;;16.63;9.00;;;;;;;;;;4992816;28;20089;-74
2023/11/11 08:40:16;;;;;;;16.77;8.27;;;;;;;;;;4991492;28;20031;-73
2023/11/11 08:42:42;;;;;;;14.83;9.07;;;;;;;;;;5008112;28;20030;-73
2023/11/11 08:45:11;;;;;;;12.93;8.20;;;;;;;;;;4992495;28;20041;-74
2023/11/11 08:47:39;;;;;;;16.33;8.53;;;;;;;;;;4991393;28;20238;-74
2023/11/11 08:50:06;;;;;;;18.67;9.23;;;;;;;;;;5006935;28;20030;-73
2023/11/11 08:52:34;;;;;;;17.00;10.27;;;;;;;;;;4991747;28;20034;-72
2023/11/11 08:55:00;;;;;;;15.47;8.97;;;;;;;;;;5006844;28;20053;-73
2023/11/11 08:57:26;;;;;;;21.73;9.47;;;;;;;;;;4990821;28;20601;-72
2023/11/11 08:59:51;;;;;;;14.50;8.67;;;;;;;;;;4990767;28;20026;-72
2023/11/11 09:02:17;;;;;;;14.60;8.20;;;;;;;;;;5005900;28;20125;-71
2023/11/11 09:04:43;;;;;;;15.20;8.43;;;;;;;;;;4989754;28;20407;-74
2023/11/11 09:07:08;;;;;;;27.07;8.77;;;;;;;;;;4991811;28;20037;-73
2023/11/11 09:09:35;;;;;;;12.27;7.87;;;;;;;;;;4989748;28;20062;-72
2023/11/11 09:12:01;;;;;;;11.73;7.83;;;;;;;;;;4992041;28;20451;-73
2023/11/11 09:14:33;;;;;;;12.93;8.33;;;;;;;;;;4991136;28;20030;-72
2023/11/11 09:17:03;;;;;;;63.78;12.02;;;;;;;;;;4991601;28;20018;-72
2023/11/11 09:19:31;;;;;;;17.57;7.77;;;;;;;;;;4992812;28;20030;-71
2023/11/11 09:21:57;;;;;;;15.23;8.40;;;;;;;;;;4992710;28;20459;-72
2023/11/11 09:24:22;;;;;;;12.93;7.30;;;;;;;;;;4992979;28;20065;-70
2023/11/11 09:26:47;;;;;;;12.83;6.50;;;;;;;;;;4992825;28;20037;-71
2023/11/11 09:29:15;;;;;;;11.13;7.23;;;;;;;;;;4991031;28;20410;-73
2023/11/11 09:31:43;;;;;;;10.43;6.67;;;;;;;;;;4991374;28;20022;-72
2023/11/11 09:34:11;;;;;;;8.27;5.57;;;;;;;;;;4991380;28;20462;-71
2023/11/11 09:36:39;;;;;;;13.70;7.07;;;;;;;;;;4992135;28;20041;-72
2023/11/11 09:39:08;;;;;;;11.43;6.70;;;;;;;;;;5006852;28;20030;-72
2023/11/11 09:41:35;;;;;;;10.50;5.83;;;;;;;;;;4989396;28;20022;-73
2023/11/11 09:44:01;;;;;;;10.43;6.07;;;;;;;;;;4989384;28;20037;-73
2023/11/11 09:46:33;;;;;;;12.15;5.95;;;;;;;;;;4990722;28;20026;-72
2023/11/11 09:48:59;;;;;;;10.35;6.30;;;;;;;;;;4989371;28;20043;-72
2023/11/11 09:51:25;;;;;;;9.45;6.32;;;;;;;;;;4991223;28;20038;-73
2023/11/11 09:53:53;;;;;;;9.07;5.23;;;;;;;;;;4991331;28;20061;-71
2023/11/11 09:56:20;;;;;;;10.50;5.93;;;;;;;;;;4990947;28;20027;-72
2023/11/11 09:58:47;;;;;;;9.48;6.45;;;;;;;;;;4991929;28;20023;-72
2023/11/11 10:01:12;;;;;;;11.07;5.78;;;;;;;;;;4993922;28;20439;-75
2023/11/11 10:03:39;;;;;;;9.43;5.50;;;;;;;;;;4995658;28;20077;-72
2023/11/11 10:06:06;;;;;;;9.43;5.33;;;;;;;;;;4992334;28;20034;-73
2023/11/11 10:08:32;;;;;;;13.13;5.18;;;;;;;;;;4989904;28;20036;-72
2023/11/11 10:10:57;;;;;;;6.78;4.95;;;;;;;;;;4991423;28;20030;-72
2023/11/11 10:13:25;;;;;;;11.20;5.55;;;;;;;;;;4991051;28;20061;-72
2023/11/11 10:16:13;;;;;;;11.43;6.82;;;;;;;;;;4989821;28;20026;-71
2023/11/11 10:18:40;;;;;;;10.55;6.13;;;;;;;;;;4989192;28;20552;-71
2023/11/11 10:21:09;;;;;;;14.43;7.10;;;;;;;;;;4990728;28;20030;-73
2023/11/11 10:23:36;;;;;;;10.73;5.73;;;;;;;;;;4989048;28;20289;-71
2023/11/11 10:26:03;;;;;;;16.10;7.97;;;;;;;;;;4989072;28;20066;-71
2023/11/11 10:28:31;;;;;;;9.37;5.80;;;;;;;;;;4990403;28;20332;-73
2023/11/11 10:31:07;;;;;;;10.77;5.87;;;;;;;;;;5005356;28;20588;-71
2023/11/11 10:33:34;;;;;;;9.40;5.30;;;;;;;;;;4990296;28;20035;-72
2023/11/11 10:36:02;;;;;;;11.00;5.60;;;;;;;;;;4990410;28;20038;-71
2023/11/11 10:38:27;;;;;;;12.07;6.27;;;;;;;;;;5005221;28;20046;-73
2023/11/11 10:40:53;;;;;;;13.70;6.17;;;;;;;;;;4989047;28;20034;-72
2023/11/11 10:43:19;;;;;;;8.75;6.20;;;;;;;;;;4988858;28;20153;-73
2023/11/11 10:45:48;;;;;;;9.27;6.00;;;;;;;;;;4990645;28;20030;-73
2023/11/11 10:48:14;;;;;;;9.43;6.13;;;;;;;;;;4989749;28;20479;-73
2023/11/11 10:50:42;;;;;;;13.50;6.33;;;;;;;;;;4994415;28;20030;-74
2023/11/11 10:53:09;;;;;;;11.03;6.67;;;;;;;;;;4994654;28;20026;-73
2023/11/11 10:55:38;;;;;;;10.77;6.13;;;;;;;;;;4995569;28;20061;-72
2023/11/11 10:58:06;;;;;;;9.90;6.13;;;;;;;;;;5010328;28;20120;-72
2023/11/11 11:00:36;;;;;;;8.07;5.70;;;;;;;;;;4993884;28;20132;-72
2023/11/11 11:03:02;;;;;;;11.25;6.13;;;;;;;;;;4994039;28;20383;-72
2023/11/11 11:05:37;;;;;;;10.15;6.32;;;;;;;;;;4994305;28;20057;-72
2023/11/11 11:08:29;;;;;;;11.75;7.15;;;;;;;;;;4994445;28;20030;-74
2023/11/11 11:11:27;;;;;;;10.80;6.20;;;;;;;;;;4990351;28;20042;-73
2023/11/11 11:13:59;;;;;;;9.10;5.43;;;;;;;;;;4993452;28;20037;-72
2023/11/11 11:16:30;;;;;;;9.18;5.47;;;;;;;;;;4993343;28;20555;-71
2023/11/11 11:18:57;;;;;;;5.75;3.80;;;;;;;;;;5008360;28;20038;-73
2023/11/11 11:21:22;;;;;;;4.40;2.35;;;;;;;;;;4991745;28;20030;-72
2023/11/11 11:23:51;;;;;;;4.28;2.20;;;;;;;;;;4992098;28;20473;-71
2023/11/11 11:26:35;;;;;;;2.55;1.55;;;;;;;;;;4993229;28;20026;-74
2023/11/11 11:29:12;;;;;;;3.45;2.05;;;;;;;;;;4992404;28;20026;-72
2023/11/11 11:32:03;;;;;;;2.28;1.52;;;;;;;;;;4992614;28;20066;-72
2023/11/11 11:34:28;;;;;;;2.10;1.73;;;;;;;;;;4992859;28;20072;-72
2023/11/11 11:36:54;;;;;;;5.53;2.47;;;;;;;;;;4993370;28;20030;-73
2023/11/11 11:39:26;;;;;;;1.80;1.65;;;;;;;;;;4993357;28;20382;-74
2023/11/11 11:42:10;;;;;;;3.05;1.55;;;;;;;;;;4993252;28;20069;-73
2023/11/11 11:44:36;;;;;;;2.25;1.45;;;;;;;;;;4991316;28;20118;-72
2023/11/11 11:47:01;;;;;;;2.20;1.30;;;;;;;;;;5007703;28;20113;-73
2023/11/11 11:49:27;;;;;;;2.65;1.48;;;;;;;;;;4992719;28;20117;-72
2023/11/11 11:51:52;;;;;;;2.47;1.47;;;;;;;;;;4992764;28;20054;-73
2023/11/11 11:54:18;;;;;;;1.77;1.67;;;;;;;;;;4991467;28;20394;-71
2023/11/11 11:56:44;;;;;;;1.23;1.13;;;;;;;;;;4991983;28;20125;-72
2023/11/11 11:59:13;;;;;;;2.08;1.63;;;;;;;;;;4991960;28;20463;-72
2023/11/11 12:01:39;;;;;;;2.50;1.75;;;;;;;;;;4993114;28;20022;-73
2023/11/11 12:04:05;;;;;;;1.67;1.57;;;;;;;;;;4992556;28;20383;-72
2023/11/11 12:06:36;;;;;;;1.67;1.58;;;;;;;;;;4991540;28;20037;-71
2023/11/11 12:09:07;;;;;;;1.40;1.30;;;;;;;;;;4993007;28;20048;-73
2023/11/11 12:11:34;;;;;;;3.60;1.45;;;;;;;;;;4990686;28;20019;-73
2023/11/11 12:14:08;;;;;;;2.08;1.58;;;;;;;;;;4991283;28;20041;-74
2023/11/11 12:16:47;;;;;;;1.55;1.45;;;;;;;;;;5007788;28;20018;-72
2023/11/11 12:19:18;;;;;;;2.50;1.90;;;;;;;;;;4991378;28;20033;-72
2023/11/11 12:21:50;;;;;;;5.05;3.08;;;;;;;;;;4990706;28;20157;-73
2023/11/11 12:24:17;;;;;;;2.85;2.08;;;;;;;;;;4991220;28;20026;-73
2023/11/11 12:26:47;;;;;;;2.40;1.67;;;;;;;;;;4990311;28;20033;-71
2023/11/11 12:29:13;;;;;;;2.57;1.80;;;;;;;;;;4992345;28;20045;-74
2023/11/11 12:31:49;;;;;;;2.40;2.05;;;;;;;;;;4990672;28;20113;-73
2023/11/11 12:34:18;;;;;;;2.50;1.88;;;;;;;;;;4990381;28;20038;-72
2023/11/11 12:36:44;;;;;;;3.40;2.00;;;;;;;;;;4990215;28;20054;-74
2023/11/11 12:39:11;;;;;;;4.27;2.50;;;;;;;;;;4990522;28;20430;-73
2023/11/11 12:41:41;;;;;;;4.00;2.37;;;;;;;;;;4991576;28;20026;-74
2023/11/11 12:44:08;;;;;;;4.73;2.10;;;;;;;;;;5006223;28;20022;-74
2023/11/11 12:46:43;;;;;;;4.37;2.53;;;;;;;;;;4991202;28;20096;-71
2023/11/11 12:49:13;;;;;;;2.97;2.67;;;;;;;;;;4992156;28;20026;-73
2023/11/11 12:51:41;;;;;;;4.23;3.23;;;;;;;;;;4989830;28;20406;-72
2023/11/11 12:54:08;;;;;;;4.03;2.60;;;;;;;;;;4990155;28;20421;-73
2023/11/11 12:56:34;;;;;;;3.40;2.40;;;;;;;;;;5006386;28;20023;-72
2023/11/11 12:59:07;;;;;;;5.40;2.97;;;;;;;;;;4991490;28;20030;-73
2023/11/11 13:01:33;;;;;;;3.93;2.90;;;;;;;;;;4989941;28;20018;-72
2023/11/11 13:04:07;;;;;;;3.40;2.50;;;;;;;;;;4991382;28;20125;-73
2023/11/11 13:06:33;;;;;;;7.07;2.70;;;;;;;;;;4990184;28;20438;-71
2023/11/11 13:09:26;;;;;;;3.40;2.73;;;;;;;;;;4991926;28;20045;-72
2023/11/11 13:11:53;;;;;;;6.82;2.30;;;;;;;;;;4990093;28;20057;-73
2023/11/11 13:14:20;;;;;;;2.77;2.33;;;;;;;;;;4974493;28;20065;-72
2023/11/11 13:16:49;;;;;;;5.13;2.23;;;;;;;;;;4991662;28;20041;-72
2023/11/11 13:19:14;;;;;;;2.40;2.20;;;;;;;;;;4991406;28;20057;-72
2023/11/11 13:21:41;;;;;;;4.47;2.57;;;;;;;;;;4990928;28;20061;-73
2023/11/11 13:24:11;;;;;;;3.30;2.10;;;;;;;;;;4990042;28;20447;-73
2023/11/11 13:26:39;;;;;;;3.37;2.00;;;;;;;;;;4974217;28;20607;-71
2023/11/11 13:29:07;;;;;;;3.37;1.83;;;;;;;;;;4990306;28;20366;-73
2023/11/11 13:31:32;;;;;;;2.20;1.27;;;;;;;;;;4989971;28;20466;-73
2023/11/11 13:33:58;;;;;;;3.37;2.23;;;;;;;;;;4989849;28;20100;-72
2023/11/11 13:36:33;;;;;;;4.30;2.30;;;;;;;;;;4991018;28;20473;-71
2023/11/11 13:39:00;;;;;;;1.50;1.40;;;;;;;;;;4989413;28;20040;-71
2023/11/11 13:41:27;;;;;;;2.83;1.80;;;;;;;;;;4990792;28;20418;-73
2023/11/11 13:43:54;;;;;;;1.53;1.03;;;;;;;;;;4990940;28;20030;-75
2023/11/11 13:46:25;;;;;;;1.37;1.00;;;;;;;;;;4989508;28;20064;-73
2023/11/11 13:48:53;;;;;;;1.00;0.80;;;;;;;;;;4990888;28;20105;-73
2023/11/11 13:51:20;;;;;;;0.83;0.70;;;;;;;;;;4989306;28;20030;-73
2023/11/11 13:53:46;;;;;;;1.00;0.80;;;;;;;;;;4989458;28;20077;-72
2023/11/11 13:56:12;;;;;;;1.00;0.70;;;;;;;;;;4989510;28;20088;-72
2023/11/11 13:58:38;;;;;;;1.27;1.03;;;;;;;;;;4990830;28;20033;-70
2023/11/11 14:01:04;;;;;;;0.60;0.60;;;;;;;;;;4999327;28;20022;-72
2023/11/11 14:03:30;;;;;;;1.07;0.73;;;;;;;;;;5008930;28;20115;-72
2023/11/11 14:05:56;;;;;;;1.77;0.87;;;;;;;;;;5009540;28;20042;-72
2023/11/11 14:08:23;;;;;;;0.60;0.50;;;;;;;;;;5011616;28;20046;-72
2023/11/11 14:10:49;;;;;;;0.70;0.70;;;;;;;;;;5011199;28;20375;-72
2023/11/11 14:13:14;;;;;;;4.57;1.30;;;;;;;;;;5014266;28;20030;-72
2023/11/11 14:15:42;;;;;;;0.60;0.60;;;;;;;;;;5017130;28;20041;-71
2023/11/11 14:18:17;;;;;;;0.63;0.63;;;;;;;;;;5015019;28;20509;-73
2023/11/11 14:20:46;;;;;;;0.70;0.70;;;;;;;;;;5010240;28;20080;-72
2023/11/11 14:23:12;;;;;;;1.07;0.80;;;;;;;;;;5011470;28;20037;-72
2023/11/11 14:25:38;;;;;;;3.93;1.27;;;;;;;;;;5013447;28;20030;-72
2023/11/11 14:28:05;;;;;;;1.37;1.03;;;;;;;;;;5014575;28;20045;-72